Time;durP1;ratioP1;P1;durP2;ratioP2;P2;SDS_P1;SDS_P2;PMS_P1;PMS_P2;Temp;Humidity;BMP_temperature;BMP_pressure;BME280_temperature;BME280_humidity;BME280_pressure;Samples;Min_cycle;Max_cycle;Signal;HPM_P1;HPM_P2
2023/03/10 00:01:11;;;;;;;2.23;0.20;;;;;;;;;;5071557;28;20310;-60
2023/03/10 00:03:39;;;;;;;0.10;0.10;;;;;;;;;;5077475;28;20325;-60
2023/03/10 00:06:06;;;;;;;0.10;0.10;;;;;;;;;;5070224;28;20215;-60
2023/03/10 00:08:33;;;;;;;0.57;0.20;;;;;;;;;;5069637;28;20207;-60
2023/03/10 00:11:02;;;;;;;0.10;0.10;;;;;;;;;;5069964;28;20309;-61
2023/03/10 00:13:29;;;;;;;0.10;0.10;;;;;;;;;;5085929;28;20582;-60
2023/03/10 00:15:56;;;;;;;0.10;0.10;;;;;;;;;;5078689;28;20203;-60
2023/03/10 00:18:23;;;;;;;0.20;0.20;;;;;;;;;;5083117;28;20203;-60
2023/03/10 00:20:51;;;;;;;0.10;0.10;;;;;;;;;;5074164;28;20264;-60
2023/03/10 00:23:18;;;;;;;0.77;0.13;;;;;;;;;;5089481;28;20349;-60
2023/03/10 00:25:45;;;;;;;0.10;0.10;;;;;;;;;;5073403;28;20218;-61
2023/03/10 00:28:13;;;;;;;0.73;0.23;;;;;;;;;;5073195;28;20214;-59
2023/03/10 00:30:40;;;;;;;0.63;0.20;;;;;;;;;;5086134;28;20203;-59
2023/03/10 00:33:07;;;;;;;0.13;0.13;;;;;;;;;;5083535;28;20663;-59
2023/03/10 00:35:34;;;;;;;1.60;0.30;;;;;;;;;;5085436;28;20206;-60
2023/03/10 00:38:02;;;;;;;1.33;0.17;;;;;;;;;;5089288;28;20242;-60
2023/03/10 00:40:29;;;;;;;0.77;0.10;;;;;;;;;;5085324;28;20198;-60
2023/03/10 00:42:58;;;;;;;0.20;0.20;;;;;;;;;;5087509;28;20676;-59
2023/03/10 00:45:26;;;;;;;1.10;0.20;;;;;;;;;;5074458;28;20233;-60
2023/03/10 00:47:53;;;;;;;0.10;0.10;;;;;;;;;;5068596;28;20235;-59
2023/03/10 00:50:20;;;;;;;0.00;0.00;;;;;;;;;;5068321;28;20207;-59
2023/03/10 00:52:50;;;;;;;0.10;0.10;;;;;;;;;;5070436;28;20337;-60
2023/03/10 00:55:17;;;;;;;2.73;0.20;;;;;;;;;;5068482;28;20513;-59
2023/03/10 00:57:44;;;;;;;0.40;0.20;;;;;;;;;;5072194;28;20210;-60
2023/03/10 01:00:13;;;;;;;1.70;0.17;;;;;;;;;;5069899;28;20199;-60
2023/03/10 01:02:42;;;;;;;0.20;0.20;;;;;;;;;;5054464;28;20207;-59
2023/03/10 01:05:10;;;;;;;0.77;0.20;;;;;;;;;;5068637;28;20235;-59
2023/03/10 01:07:37;;;;;;;0.33;0.10;;;;;;;;;;5072859;28;20687;-60
2023/03/10 01:10:04;;;;;;;0.10;0.10;;;;;;;;;;5088776;28;20206;-60
2023/03/10 01:12:31;;;;;;;2.60;0.30;;;;;;;;;;5084798;28;20199;-60
2023/03/10 01:14:58;;;;;;;0.80;0.20;;;;;;;;;;5068280;28;20272;-60
2023/03/10 01:17:25;;;;;;;0.60;0.27;;;;;;;;;;5076164;28;20268;-60
2023/03/10 01:19:53;;;;;;;0.10;0.10;;;;;;;;;;5068151;28;20211;-60
2023/03/10 01:22:20;;;;;;;1.83;0.40;;;;;;;;;;5068195;28;20231;-59
2023/03/10 01:24:48;;;;;;;0.20;0.20;;;;;;;;;;5068001;28;20238;-60
2023/03/10 01:27:15;;;;;;;0.20;0.20;;;;;;;;;;5068105;28;20271;-59
2023/03/10 01:29:42;;;;;;;0.10;0.10;;;;;;;;;;5076956;28;20207;-60
2023/03/10 01:32:09;;;;;;;0.10;0.10;;;;;;;;;;5067603;28;20207;-60
2023/03/10 01:34:38;;;;;;;0.10;0.10;;;;;;;;;;5072738;28;20218;-59
2023/03/10 01:37:06;;;;;;;0.00;0.00;;;;;;;;;;5075720;28;20725;-59
2023/03/10 01:39:33;;;;;;;0.10;0.10;;;;;;;;;;5074390;28;20207;-59
2023/03/10 01:42:00;;;;;;;0.00;0.00;;;;;;;;;;5070905;28;20241;-59
2023/03/10 01:44:27;;;;;;;1.27;0.13;;;;;;;;;;5073306;28;20272;-59
2023/03/10 01:46:55;;;;;;;0.97;0.10;;;;;;;;;;5067859;28;20662;-58
2023/03/10 01:49:26;;;;;;;0.10;0.10;;;;;;;;;;5069826;28;20218;-59
2023/03/10 01:51:56;;;;;;;0.10;0.10;;;;;;;;;;5052309;28;20599;-59
2023/03/10 01:54:26;;;;;;;1.30;0.20;;;;;;;;;;5071859;28;20248;-59
2023/03/10 01:56:54;;;;;;;0.10;0.10;;;;;;;;;;5068785;28;20587;-60
2023/03/10 01:59:22;;;;;;;0.13;0.13;;;;;;;;;;5068632;28;20310;-60
2023/03/10 02:01:49;;;;;;;0.10;0.10;;;;;;;;;;5067804;28;20270;-60
2023/03/10 02:04:19;;;;;;;0.20;0.10;;;;;;;;;;5066453;28;20633;-60
2023/03/10 02:06:48;;;;;;;0.13;0.13;;;;;;;;;;5070075;28;20903;-60
2023/03/10 02:09:17;;;;;;;0.10;0.10;;;;;;;;;;5076767;28;20206;-60
2023/03/10 02:11:45;;;;;;;0.10;0.10;;;;;;;;;;5071549;28;20194;-60
2023/03/10 02:14:12;;;;;;;0.10;0.10;;;;;;;;;;5084534;28;20209;-60
2023/03/10 02:16:39;;;;;;;0.17;0.10;;;;;;;;;;5078561;28;20470;-60
2023/03/10 02:19:09;;;;;;;0.00;0.00;;;;;;;;;;5070983;28;20211;-62
2023/03/10 02:21:42;;;;;;;0.87;0.10;;;;;;;;;;5071103;28;20226;-60
2023/03/10 02:24:18;;;;;;;0.13;0.13;;;;;;;;;;5084925;28;20229;-60
2023/03/10 02:26:51;;;;;;;0.27;0.00;;;;;;;;;;5077141;28;20306;-59
2023/03/10 02:29:22;;;;;;;0.43;0.10;;;;;;;;;;5079177;28;20207;-60
2023/03/10 02:31:50;;;;;;;0.63;0.10;;;;;;;;;;5071146;28;20206;-60
2023/03/10 02:34:17;;;;;;;0.20;0.10;;;;;;;;;;5071138;28;20229;-60
2023/03/10 02:36:44;;;;;;;0.00;0.00;;;;;;;;;;5072989;28;20198;-60
2023/03/10 02:39:11;;;;;;;0.13;0.13;;;;;;;;;;5072415;28;20592;-60
2023/03/10 02:41:39;;;;;;;1.93;0.20;;;;;;;;;;5059463;28;20222;-59
2023/03/10 02:44:08;;;;;;;0.00;0.00;;;;;;;;;;5079624;28;20206;-60
2023/03/10 02:46:36;;;;;;;0.10;0.10;;;;;;;;;;5072254;28;20203;-59
2023/03/10 02:49:06;;;;;;;0.70;0.20;;;;;;;;;;5081970;28;20204;-59
2023/03/10 02:51:34;;;;;;;0.40;0.10;;;;;;;;;;5070955;28;20203;-59
2023/03/10 02:54:01;;;;;;;1.70;0.10;;;;;;;;;;5073061;28;20207;-60
2023/03/10 02:56:28;;;;;;;1.80;0.17;;;;;;;;;;5071036;28;20195;-60
2023/03/10 02:58:55;;;;;;;0.10;0.10;;;;;;;;;;5073285;28;20704;-61
2023/03/10 03:01:25;;;;;;;0.13;0.10;;;;;;;;;;5082304;28;20202;-60
2023/03/10 03:03:53;;;;;;;0.10;0.10;;;;;;;;;;5075526;28;20215;-61
2023/03/10 03:06:20;;;;;;;0.97;0.10;;;;;;;;;;5070073;28;20722;-60
2023/03/10 03:08:47;;;;;;;0.10;0.10;;;;;;;;;;5069317;28;20675;-61
2023/03/10 03:11:15;;;;;;;1.23;0.13;;;;;;;;;;5070134;28;20894;-60
2023/03/10 03:13:42;;;;;;;3.40;0.27;;;;;;;;;;5079126;28;20198;-60
2023/03/10 03:16:09;;;;;;;2.03;0.40;;;;;;;;;;5083559;28;20202;-60
2023/03/10 03:18:37;;;;;;;0.40;0.40;;;;;;;;;;5083558;28;20693;-61
2023/03/10 03:21:06;;;;;;;0.43;0.10;;;;;;;;;;5085882;28;20206;-60
2023/03/10 03:23:34;;;;;;;0.20;0.20;;;;;;;;;;5088802;28;20202;-61
2023/03/10 03:26:01;;;;;;;0.20;0.20;;;;;;;;;;5080437;28;20233;-61
2023/03/10 03:28:28;;;;;;;2.63;0.20;;;;;;;;;;5079257;28;20261;-61
2023/03/10 03:30:56;;;;;;;0.13;0.13;;;;;;;;;;5071015;28;20293;-61
2023/03/10 03:33:23;;;;;;;0.37;0.30;;;;;;;;;;5076892;28;20290;-60
2023/03/10 03:35:50;;;;;;;0.30;0.20;;;;;;;;;;5087876;28;20213;-61
2023/03/10 03:38:19;;;;;;;0.57;0.20;;;;;;;;;;5073871;28;20627;-61
2023/03/10 03:40:46;;;;;;;0.10;0.10;;;;;;;;;;5070120;28;20210;-60
2023/03/10 03:43:14;;;;;;;0.63;0.30;;;;;;;;;;5070069;28;20207;-60
2023/03/10 03:45:41;;;;;;;0.97;0.40;;;;;;;;;;5076462;28;20226;-60
2023/03/10 03:48:08;;;;;;;0.77;0.20;;;;;;;;;;5079431;28;20575;-60
2023/03/10 03:50:39;;;;;;;0.20;0.20;;;;;;;;;;5060317;28;20203;-60
2023/03/10 03:53:06;;;;;;;0.43;0.13;;;;;;;;;;5073429;28;20210;-60
2023/03/10 03:55:34;;;;;;;0.20;0.20;;;;;;;;;;5071212;28;20203;-60
2023/03/10 03:58:01;;;;;;;0.53;0.20;;;;;;;;;;5073186;28;20211;-60
2023/03/10 04:00:28;;;;;;;0.43;0.30;;;;;;;;;;5071079;28;20541;-60
2023/03/10 04:02:55;;;;;;;1.10;0.20;;;;;;;;;;5071890;28;20214;-60
2023/03/10 04:05:22;;;;;;;0.13;0.13;;;;;;;;;;5085888;28;20230;-60
2023/03/10 04:07:49;;;;;;;0.07;0.07;;;;;;;;;;5084331;28;20194;-60
2023/03/10 04:10:18;;;;;;;0.20;0.20;;;;;;;;;;5072350;28;20215;-60
2023/03/10 04:12:47;;;;;;;0.27;0.17;;;;;;;;;;5076026;28;20203;-60
2023/03/10 04:15:14;;;;;;;0.00;0.00;;;;;;;;;;5082097;28;20575;-60
2023/03/10 04:17:42;;;;;;;3.83;0.20;;;;;;;;;;5080064;28;20276;-60
2023/03/10 04:20:12;;;;;;;0.20;0.20;;;;;;;;;;5088934;28;20203;-60
2023/03/10 04:22:39;;;;;;;0.20;0.20;;;;;;;;;;5079443;28;20239;-60
2023/03/10 04:25:07;;;;;;;0.20;0.20;;;;;;;;;;5088442;28;20286;-60
2023/03/10 04:27:34;;;;;;;0.30;0.20;;;;;;;;;;5078535;28;20207;-60
2023/03/10 04:30:03;;;;;;;0.17;0.17;;;;;;;;;;5077681;28;20214;-60
2023/03/10 04:32:31;;;;;;;0.17;0.17;;;;;;;;;;5074635;28;20298;-60
2023/03/10 04:34:58;;;;;;;0.30;0.30;;;;;;;;;;5077788;28;20205;-60
2023/03/10 04:37:26;;;;;;;0.83;0.37;;;;;;;;;;5082571;28;20238;-61
2023/03/10 04:39:53;;;;;;;0.20;0.20;;;;;;;;;;5082953;28;20225;-60
2023/03/10 04:42:20;;;;;;;0.50;0.20;;;;;;;;;;5082442;28;20228;-60
2023/03/10 04:44:47;;;;;;;4.70;0.33;;;;;;;;;;5078892;28;20210;-60
2023/03/10 04:47:15;;;;;;;0.20;0.20;;;;;;;;;;5082029;28;20198;-59
2023/03/10 04:49:42;;;;;;;0.30;0.30;;;;;;;;;;5088106;28;20203;-60
2023/03/10 04:52:09;;;;;;;0.43;0.30;;;;;;;;;;5085836;28;20214;-60
2023/03/10 04:54:36;;;;;;;0.50;0.20;;;;;;;;;;5078108;28;20342;-60
2023/03/10 04:57:04;;;;;;;0.50;0.50;;;;;;;;;;5084532;28;20356;-60
2023/03/10 04:59:31;;;;;;;0.80;0.27;;;;;;;;;;5086812;28;20202;-60
2023/03/10 05:01:58;;;;;;;0.20;0.20;;;;;;;;;;5071326;28;20206;-60
2023/03/10 05:04:26;;;;;;;0.73;0.43;;;;;;;;;;5082510;28;20206;-60
2023/03/10 05:06:53;;;;;;;1.70;0.20;;;;;;;;;;5069642;28;20234;-60
2023/03/10 05:09:20;;;;;;;2.00;0.40;;;;;;;;;;5085766;28;20206;-60
2023/03/10 05:11:47;;;;;;;1.20;0.20;;;;;;;;;;5088664;28;20206;-60
2023/03/10 05:14:15;;;;;;;0.30;0.30;;;;;;;;;;5078324;28;20207;-61
2023/03/10 05:16:42;;;;;;;2.40;0.33;;;;;;;;;;5073481;28;20573;-60
2023/03/10 05:19:09;;;;;;;1.80;0.20;;;;;;;;;;5068339;28;20203;-60
2023/03/10 05:21:37;;;;;;;1.43;0.50;;;;;;;;;;5077822;28;20234;-60
2023/03/10 05:24:04;;;;;;;1.23;0.30;;;;;;;;;;5070665;28;20575;-59
2023/03/10 05:26:31;;;;;;;2.00;0.10;;;;;;;;;;5069376;28;20226;-60
2023/03/10 05:28:58;;;;;;;1.87;0.30;;;;;;;;;;5074500;28;20210;-60
2023/03/10 05:31:25;;;;;;;0.93;0.50;;;;;;;;;;5075684;28;20199;-60
2023/03/10 05:33:53;;;;;;;1.30;0.40;;;;;;;;;;5073366;28;20236;-60
2023/03/10 05:36:20;;;;;;;0.73;0.30;;;;;;;;;;5072309;28;20283;-60
2023/03/10 05:38:49;;;;;;;0.40;0.27;;;;;;;;;;5068074;28;20358;-60
2023/03/10 05:41:16;;;;;;;0.40;0.40;;;;;;;;;;5073610;28;20203;-60
2023/03/10 05:43:43;;;;;;;0.27;0.20;;;;;;;;;;5068837;28;20290;-60
2023/03/10 05:46:11;;;;;;;2.43;0.40;;;;;;;;;;5081365;28;20228;-60
2023/03/10 05:48:38;;;;;;;3.43;0.40;;;;;;;;;;5070586;28;20207;-60
2023/03/10 05:51:06;;;;;;;0.50;0.50;;;;;;;;;;5074817;28;20648;-60
2023/03/10 05:53:34;;;;;;;0.20;0.20;;;;;;;;;;5067719;28;20260;-60
2023/03/10 05:56:05;;;;;;;0.60;0.37;;;;;;;;;;5075008;28;20209;-60
2023/03/10 05:58:32;;;;;;;1.73;0.43;;;;;;;;;;5067975;28;20219;-60
2023/03/10 06:00:59;;;;;;;0.70;0.40;;;;;;;;;;5076005;28;20290;-60
2023/03/10 06:03:28;;;;;;;0.30;0.30;;;;;;;;;;5068213;28;20483;-61
2023/03/10 06:05:55;;;;;;;0.50;0.20;;;;;;;;;;5078865;28;20313;-58
2023/03/10 06:08:23;;;;;;;0.40;0.13;;;;;;;;;;5088160;28;20210;-58
2023/03/10 06:10:50;;;;;;;1.80;0.23;;;;;;;;;;5077020;28;20639;-58
2023/03/10 06:13:19;;;;;;;4.97;0.53;;;;;;;;;;5067663;28;20203;-58
2023/03/10 06:15:48;;;;;;;0.30;0.17;;;;;;;;;;5072907;28;20238;-58
2023/03/10 06:18:15;;;;;;;0.97;0.33;;;;;;;;;;5067781;28;20214;-58
2023/03/10 06:20:42;;;;;;;0.37;0.30;;;;;;;;;;5069080;28;20198;-61
2023/03/10 06:23:10;;;;;;;2.00;0.30;;;;;;;;;;5067175;28;20222;-58
2023/03/10 06:25:37;;;;;;;0.57;0.57;;;;;;;;;;5071075;28;20743;-60
2023/03/10 06:28:04;;;;;;;1.80;0.27;;;;;;;;;;5067203;28;20199;-60
2023/03/10 06:30:32;;;;;;;0.90;0.50;;;;;;;;;;5073040;28;20206;-60
2023/03/10 06:33:00;;;;;;;0.40;0.40;;;;;;;;;;5071026;28;20202;-60
2023/03/10 06:35:27;;;;;;;1.03;0.57;;;;;;;;;;5062583;28;20222;-60
2023/03/10 06:37:54;;;;;;;0.90;0.90;;;;;;;;;;5047238;28;20239;-60
2023/03/10 06:40:21;;;;;;;1.90;0.43;;;;;;;;;;5056785;28;20272;-60
2023/03/10 06:42:48;;;;;;;2.83;0.50;;;;;;;;;;5087398;28;20206;-60
2023/03/10 06:45:16;;;;;;;1.37;0.40;;;;;;;;;;5079945;28;20202;-60
2023/03/10 06:47:45;;;;;;;2.00;0.47;;;;;;;;;;5078390;28;20721;-61
2023/03/10 06:50:12;;;;;;;0.37;0.37;;;;;;;;;;5078039;28;20208;-60
2023/03/10 06:52:41;;;;;;;2.13;0.50;;;;;;;;;;5081087;28;20210;-61
2023/03/10 06:55:09;;;;;;;0.67;0.20;;;;;;;;;;5076672;28;20220;-60
2023/03/10 06:57:36;;;;;;;1.37;0.53;;;;;;;;;;5071239;28;20225;-61
2023/03/10 07:00:04;;;;;;;0.60;0.60;;;;;;;;;;5059369;28;20211;-59
2023/03/10 07:02:31;;;;;;;0.93;0.50;;;;;;;;;;5061982;28;20203;-64
2023/03/10 07:04:59;;;;;;;0.50;0.50;;;;;;;;;;5073214;28;20206;-58
2023/03/10 07:07:26;;;;;;;1.80;0.70;;;;;;;;;;5088118;28;20230;-61
2023/03/10 07:09:53;;;;;;;0.83;0.40;;;;;;;;;;5084692;28;20207;-61
2023/03/10 07:12:21;;;;;;;0.30;0.30;;;;;;;;;;5086209;28;20202;-61
2023/03/10 07:14:48;;;;;;;0.67;0.50;;;;;;;;;;5073365;28;20206;-60
2023/03/10 07:17:15;;;;;;;0.60;0.40;;;;;;;;;;5068616;28;20203;-61
2023/03/10 07:19:42;;;;;;;0.43;0.37;;;;;;;;;;5069896;28;20222;-61
2023/03/10 07:22:11;;;;;;;4.33;0.60;;;;;;;;;;5077081;28;20249;-61
2023/03/10 07:24:38;;;;;;;2.40;0.30;;;;;;;;;;5069973;28;20230;-59
2023/03/10 07:27:05;;;;;;;0.73;0.47;;;;;;;;;;5088664;28;20238;-60
2023/03/10 07:29:32;;;;;;;0.53;0.53;;;;;;;;;;5090628;28;20723;-59
2023/03/10 07:31:59;;;;;;;1.70;0.40;;;;;;;;;;5084142;28;20219;-60
2023/03/10 07:34:26;;;;;;;1.50;0.30;;;;;;;;;;5070274;28;20219;-60
2023/03/10 07:36:53;;;;;;;0.93;0.30;;;;;;;;;;5086000;28;20206;-59
2023/03/10 07:39:22;;;;;;;1.50;0.60;;;;;;;;;;5090632;28;20238;-59
2023/03/10 07:41:49;;;;;;;2.23;0.50;;;;;;;;;;5088976;28;20891;-59
2023/03/10 07:44:16;;;;;;;2.77;0.40;;;;;;;;;;5089927;28;20222;-59
2023/03/10 07:46:44;;;;;;;0.63;0.60;;;;;;;;;;5088203;28;20830;-59
2023/03/10 07:49:13;;;;;;;3.30;0.60;;;;;;;;;;5089908;28;20214;-59
2023/03/10 07:51:40;;;;;;;2.70;0.27;;;;;;;;;;5086664;28;20202;-60
2023/03/10 07:54:07;;;;;;;3.10;0.63;;;;;;;;;;5080991;28;20206;-59
2023/03/10 07:56:36;;;;;;;0.43;0.20;;;;;;;;;;5069534;28;20688;-59
2023/03/10 07:59:03;;;;;;;1.47;0.40;;;;;;;;;;5076564;28;20618;-59
2023/03/10 08:01:30;;;;;;;0.47;0.40;;;;;;;;;;5089671;28;20676;-60
2023/03/10 08:03:57;;;;;;;2.00;0.20;;;;;;;;;;5078780;28;20272;-61
2023/03/10 08:06:25;;;;;;;0.63;0.30;;;;;;;;;;5069400;28;20230;-67
2023/03/10 08:08:53;;;;;;;2.23;0.20;;;;;;;;;;5073547;28;20206;-63
2023/03/10 08:11:21;;;;;;;2.30;0.10;;;;;;;;;;5080670;28;20316;-65
2023/03/10 08:13:49;;;;;;;0.87;0.30;;;;;;;;;;5068960;28;20250;-63
2023/03/10 08:16:16;;;;;;;1.60;0.20;;;;;;;;;;5068974;28;20351;-63
2023/03/10 08:18:44;;;;;;;0.97;0.20;;;;;;;;;;5068068;28;20222;-64
2023/03/10 08:21:11;;;;;;;0.10;0.10;;;;;;;;;;5068880;28;20231;-63
2023/03/10 08:23:38;;;;;;;0.27;0.27;;;;;;;;;;5069308;28;20214;-64
2023/03/10 08:26:07;;;;;;;0.33;0.20;;;;;;;;;;5069397;28;20226;-64
2023/03/10 08:28:37;;;;;;;1.03;0.20;;;;;;;;;;5069055;28;20845;-64
2023/03/10 08:31:09;;;;;;;0.30;0.30;;;;;;;;;;5068788;28;20685;-64
2023/03/10 08:33:36;;;;;;;0.57;0.37;;;;;;;;;;5068871;28;20218;-65
2023/03/10 08:36:04;;;;;;;1.30;0.47;;;;;;;;;;5068634;28;20222;-64
2023/03/10 08:38:31;;;;;;;0.53;0.30;;;;;;;;;;5068674;28;20660;-65
2023/03/10 08:40:58;;;;;;;0.73;0.20;;;;;;;;;;5066637;28;20662;-63
2023/03/10 08:43:25;;;;;;;0.00;0.00;;;;;;;;;;5071220;28;20206;-63
2023/03/10 08:45:52;;;;;;;4.07;0.30;;;;;;;;;;5089004;28;20225;-63
2023/03/10 08:48:20;;;;;;;0.97;0.30;;;;;;;;;;5086983;28;20211;-64
2023/03/10 08:50:47;;;;;;;3.80;0.37;;;;;;;;;;5088548;28;20210;-63
2023/03/10 08:53:15;;;;;;;0.63;0.10;;;;;;;;;;5086091;28;20210;-67
2023/03/10 08:55:42;;;;;;;0.20;0.13;;;;;;;;;;5068244;28;20229;-63
2023/03/10 08:58:09;;;;;;;0.20;0.20;;;;;;;;;;5068643;28;20203;-63
2023/03/10 09:00:36;;;;;;;0.30;0.10;;;;;;;;;;5088292;28;20290;-64
2023/03/10 09:03:03;;;;;;;0.40;0.20;;;;;;;;;;5082251;28;20705;-64
2023/03/10 09:05:32;;;;;;;1.03;0.20;;;;;;;;;;5068953;28;20217;-61
2023/03/10 09:07:59;;;;;;;1.50;0.30;;;;;;;;;;5083377;28;20222;-60
2023/03/10 09:10:26;;;;;;;1.30;0.33;;;;;;;;;;5079738;28;20214;-62
2023/03/10 09:12:53;;;;;;;0.40;0.20;;;;;;;;;;5068022;28;20215;-62
2023/03/10 09:15:20;;;;;;;0.10;0.10;;;;;;;;;;5068032;28;20202;-61
2023/03/10 09:17:47;;;;;;;0.30;0.30;;;;;;;;;;5067937;28;20262;-61
2023/03/10 09:20:15;;;;;;;0.10;0.10;;;;;;;;;;5068635;28;20208;-62
2023/03/10 09:22:44;;;;;;;0.83;0.20;;;;;;;;;;5080516;28;20257;-61
2023/03/10 09:25:11;;;;;;;0.83;0.53;;;;;;;;;;5084424;28;20307;-62
2023/03/10 09:27:38;;;;;;;7.93;0.30;;;;;;;;;;5068141;28;20697;-65
2023/03/10 09:30:06;;;;;;;1.90;0.40;;;;;;;;;;5079301;28;20209;-65
2023/03/10 09:32:33;;;;;;;1.97;0.40;;;;;;;;;;5068300;28;20214;-64
2023/03/10 09:35:00;;;;;;;1.03;0.30;;;;;;;;;;5073643;28;20969;-64
2023/03/10 09:37:27;;;;;;;1.47;0.60;;;;;;;;;;5086232;28;20792;-64
2023/03/10 09:39:56;;;;;;;0.27;0.23;;;;;;;;;;5084954;28;20230;-64
2023/03/10 09:42:36;;;;;;;1.70;0.37;;;;;;;;;;5082271;28;20203;-64
2023/03/10 09:45:08;;;;;;;1.10;0.30;;;;;;;;;;5071176;28;20557;-64
2023/03/10 09:47:42;;;;;;;3.10;0.30;;;;;;;;;;5067912;28;20238;-64
2023/03/10 09:50:20;;;;;;;0.13;0.13;;;;;;;;;;5067670;28;20279;-64
2023/03/10 09:52:48;;;;;;;1.63;0.37;;;;;;;;;;5067520;28;20214;-64
2023/03/10 09:55:21;;;;;;;1.70;0.20;;;;;;;;;;5068239;28;20210;-60
2023/03/10 09:57:49;;;;;;;0.23;0.23;;;;;;;;;;5067169;28;20215;-60
2023/03/10 10:00:20;;;;;;;1.60;0.30;;;;;;;;;;5057522;28;20203;-60
2023/03/10 10:02:47;;;;;;;0.20;0.20;;;;;;;;;;5056891;28;20217;-60
2023/03/10 10:05:18;;;;;;;2.53;0.40;;;;;;;;;;5065894;28;20627;-60
2023/03/10 10:07:47;;;;;;;1.43;0.27;;;;;;;;;;5066653;28;21054;-60
2023/03/10 10:10:17;;;;;;;0.83;0.47;;;;;;;;;;5067527;28;20203;-60
2023/03/10 10:12:46;;;;;;;0.83;0.67;;;;;;;;;;5069557;28;20267;-60
2023/03/10 10:15:15;;;;;;;0.83;0.53;;;;;;;;;;5067568;28;20207;-60
2023/03/10 10:17:48;;;;;;;2.43;0.43;;;;;;;;;;5067714;28;20795;-60
2023/03/10 10:20:19;;;;;;;1.20;0.20;;;;;;;;;;5067470;28;20211;-60
2023/03/10 10:22:46;;;;;;;0.40;0.40;;;;;;;;;;5065235;28;20879;-60
2023/03/10 10:25:17;;;;;;;0.10;0.10;;;;;;;;;;5067570;28;20206;-60
2023/03/10 10:27:46;;;;;;;0.43;0.40;;;;;;;;;;5070453;28;20223;-60
2023/03/10 10:30:27;;;;;;;0.20;0.20;;;;;;;;;;5070866;28;20235;-60
2023/03/10 10:32:58;;;;;;;2.47;0.63;;;;;;;;;;5065029;28;20211;-60
2023/03/10 10:35:27;;;;;;;3.07;1.40;;;;;;;;;;5067187;28;20924;-60
2023/03/10 10:37:59;;;;;;;1.30;0.50;;;;;;;;;;5068633;28;20245;-60
2023/03/10 10:40:27;;;;;;;1.37;0.70;;;;;;;;;;5068745;28;20727;-60
2023/03/10 10:42:56;;;;;;;0.87;0.50;;;;;;;;;;5071670;28;20277;-60
2023/03/10 10:45:25;;;;;;;0.60;0.40;;;;;;;;;;5071161;28;20216;-60
2023/03/10 10:47:54;;;;;;;3.10;0.60;;;;;;;;;;5072341;28;20234;-60
2023/03/10 10:50:22;;;;;;;0.40;0.40;;;;;;;;;;5071141;28;20217;-60
2023/03/10 10:52:51;;;;;;;0.67;0.50;;;;;;;;;;5072579;28;20298;-60
2023/03/10 10:55:27;;;;;;;0.43;0.40;;;;;;;;;;5073397;28;20199;-60
2023/03/10 10:57:56;;;;;;;0.67;0.30;;;;;;;;;;5071591;28;20217;-60
2023/03/10 11:00:26;;;;;;;0.30;0.20;;;;;;;;;;5067433;28;20211;-60
2023/03/10 11:02:53;;;;;;;0.30;0.30;;;;;;;;;;5067539;28;20235;-60
2023/03/10 11:05:22;;;;;;;0.50;0.10;;;;;;;;;;5069715;28;20211;-60
2023/03/10 11:07:49;;;;;;;0.10;0.10;;;;;;;;;;5069371;28;20318;-60
2023/03/10 11:10:18;;;;;;;0.30;0.20;;;;;;;;;;5070167;28;20317;-61
2023/03/10 11:12:59;;;;;;;0.30;0.30;;;;;;;;;;5073615;28;20222;-61
2023/03/10 11:15:29;;;;;;;0.30;0.27;;;;;;;;;;5075601;28;20734;-64
2023/03/10 11:17:59;;;;;;;0.27;0.10;;;;;;;;;;5082198;28;20301;-63
2023/03/10 11:20:29;;;;;;;0.20;0.20;;;;;;;;;;5060952;28;20216;-61
2023/03/10 11:23:02;;;;;;;0.63;0.23;;;;;;;;;;5069819;28;20300;-60
2023/03/10 11:25:32;;;;;;;0.20;0.20;;;;;;;;;;5069058;28;20948;-61
2023/03/10 11:28:05;;;;;;;0.17;0.17;;;;;;;;;;5067690;28;20591;-60
2023/03/10 11:30:33;;;;;;;0.20;0.20;;;;;;;;;;5073933;28;20309;-64
2023/03/10 11:33:06;;;;;;;0.33;0.20;;;;;;;;;;5077263;28;20215;-68
2023/03/10 11:35:42;;;;;;;0.97;0.20;;;;;;;;;;5070803;28;20214;-65
2023/03/10 11:38:17;;;;;;;0.30;0.30;;;;;;;;;;5070142;28;20230;-71
2023/03/10 11:40:47;;;;;;;0.20;0.20;;;;;;;;;;5065979;28;20917;-64
2023/03/10 11:43:22;;;;;;;0.10;0.10;;;;;;;;;;5069428;28;20685;-65
2023/03/10 11:45:52;;;;;;;0.03;0.03;;;;;;;;;;5072086;28;20260;-65
2023/03/10 11:48:25;;;;;;;0.10;0.10;;;;;;;;;;5071290;28;20234;-65
2023/03/10 11:50:52;;;;;;;0.10;0.00;;;;;;;;;;5059491;28;20218;-65
2023/03/10 11:53:24;;;;;;;0.00;0.00;;;;;;;;;;5069225;28;20207;-65
2023/03/10 11:55:52;;;;;;;0.10;0.10;;;;;;;;;;5072898;28;20222;-65
2023/03/10 11:58:24;;;;;;;0.10;0.10;;;;;;;;;;5070578;28;20199;-65
2023/03/10 12:00:52;;;;;;;0.20;0.20;;;;;;;;;;5058408;28;20215;-64
2023/03/10 12:03:21;;;;;;;0.20;0.20;;;;;;;;;;5067053;28;20215;-65
2023/03/10 12:05:51;;;;;;;1.53;0.30;;;;;;;;;;5073583;28;20210;-65
2023/03/10 12:08:20;;;;;;;0.20;0.20;;;;;;;;;;5070201;28;20238;-64
2023/03/10 12:10:48;;;;;;;1.33;0.33;;;;;;;;;;5069332;28;20210;-64
2023/03/10 12:13:22;;;;;;;0.03;0.03;;;;;;;;;;5059270;28;20334;-64
2023/03/10 12:15:50;;;;;;;0.70;0.10;;;;;;;;;;5067336;28;20313;-64
2023/03/10 12:18:18;;;;;;;0.30;0.20;;;;;;;;;;5070035;28;20218;-64
2023/03/10 12:20:45;;;;;;;0.23;0.10;;;;;;;;;;5054366;28;20212;-64
2023/03/10 12:23:31;;;;;;;0.20;0.20;;;;;;;;;;5062812;28;20685;-64
2023/03/10 12:25:58;;;;;;;1.13;0.10;;;;;;;;;;5068543;28;20346;-64
2023/03/10 12:28:26;;;;;;;1.80;0.10;;;;;;;;;;5069112;28;21002;-64
2023/03/10 12:30:56;;;;;;;0.00;0.00;;;;;;;;;;5059005;28;20215;-64
2023/03/10 12:33:44;;;;;;;1.43;0.10;;;;;;;;;;5056710;28;20321;-65
2023/03/10 12:36:13;;;;;;;0.20;0.20;;;;;;;;;;5064222;28;20211;-64
2023/03/10 12:38:43;;;;;;;0.20;0.20;;;;;;;;;;5068872;28;20238;-64
2023/03/10 12:41:10;;;;;;;0.30;0.10;;;;;;;;;;5063202;28;20234;-64
2023/03/10 12:43:44;;;;;;;0.10;0.10;;;;;;;;;;5047936;28;20694;-64
2023/03/10 12:46:13;;;;;;;0.50;0.20;;;;;;;;;;5063872;28;20696;-65
2023/03/10 12:48:42;;;;;;;0.77;0.10;;;;;;;;;;5048539;28;21034;-63
2023/03/10 12:51:12;;;;;;;1.60;0.10;;;;;;;;;;5063851;28;20701;-64
2023/03/10 12:53:44;;;;;;;0.63;0.13;;;;;;;;;;5057580;28;20215;-64
2023/03/10 12:56:22;;;;;;;0.10;0.10;;;;;;;;;;5063175;28;20284;-62
2023/03/10 12:58:52;;;;;;;0.10;0.10;;;;;;;;;;5068957;28;20683;-61
2023/03/10 13:01:22;;;;;;;0.20;0.20;;;;;;;;;;5060770;28;20294;-61
2023/03/10 13:03:52;;;;;;;0.17;0.13;;;;;;;;;;5060274;28;20211;-61
2023/03/10 13:06:21;;;;;;;0.03;0.03;;;;;;;;;;5068149;28;20207;-61
2023/03/10 13:08:50;;;;;;;0.00;0.00;;;;;;;;;;5059666;28;20235;-61
2023/03/10 13:11:23;;;;;;;0.10;0.10;;;;;;;;;;5062529;28;20206;-61
2023/03/10 13:13:51;;;;;;;0.10;0.10;;;;;;;;;;5068418;28;20467;-61
2023/03/10 13:16:20;;;;;;;0.23;0.00;;;;;;;;;;5054135;28;20265;-61
2023/03/10 13:18:49;;;;;;;0.10;0.10;;;;;;;;;;5048250;28;20222;-61
2023/03/10 13:21:23;;;;;;;0.10;0.10;;;;;;;;;;5062253;28;20242;-61
2023/03/10 13:23:50;;;;;;;0.00;0.00;;;;;;;;;;5076342;28;20282;-62
2023/03/10 13:26:18;;;;;;;0.10;0.10;;;;;;;;;;5069347;28;20222;-61
2023/03/10 13:28:51;;;;;;;0.00;0.00;;;;;;;;;;5068458;28;20239;-60
2023/03/10 13:31:19;;;;;;;0.00;0.00;;;;;;;;;;5069833;28;20268;-69
2023/03/10 13:33:49;;;;;;;0.10;0.10;;;;;;;;;;5069871;28;20685;-60
2023/03/10 13:36:22;;;;;;;0.63;0.17;;;;;;;;;;5070512;28;20587;-62
2023/03/10 13:38:51;;;;;;;0.00;0.00;;;;;;;;;;5068400;28;20223;-60
2023/03/10 13:41:19;;;;;;;0.00;0.00;;;;;;;;;;5073980;28;20206;-60
2023/03/10 13:43:47;;;;;;;0.37;0.10;;;;;;;;;;5084814;28;20238;-61
2023/03/10 13:46:16;;;;;;;0.27;0.20;;;;;;;;;;5071026;28;20207;-62
2023/03/10 13:48:43;;;;;;;0.20;0.20;;;;;;;;;;5068310;28;20215;-61
2023/03/10 13:51:17;;;;;;;0.20;0.20;;;;;;;;;;5073930;28;20673;-60
2023/03/10 13:53:46;;;;;;;0.27;0.27;;;;;;;;;;5072789;28;20736;-61
2023/03/10 13:56:18;;;;;;;0.20;0.20;;;;;;;;;;5067311;28;20211;-61
2023/03/10 13:58:46;;;;;;;1.73;0.20;;;;;;;;;;5067561;28;20214;-60
2023/03/10 14:01:16;;;;;;;0.50;0.50;;;;;;;;;;5066982;28;20203;-61
2023/03/10 14:03:49;;;;;;;0.57;0.47;;;;;;;;;;5067778;28;20222;-62
2023/03/10 14:06:16;;;;;;;0.20;0.20;;;;;;;;;;5067165;28;20211;-60
2023/03/10 14:08:45;;;;;;;0.30;0.30;;;;;;;;;;5067522;28;20241;-60
2023/03/10 14:11:30;;;;;;;0.47;0.23;;;;;;;;;;5066853;28;20213;-62
2023/03/10 14:13:58;;;;;;;0.93;0.20;;;;;;;;;;5068027;28;20310;-61
2023/03/10 14:16:40;;;;;;;1.43;0.30;;;;;;;;;;5066108;28;20555;-60
2023/03/10 14:19:07;;;;;;;0.23;0.23;;;;;;;;;;5061810;28;20355;-60
2023/03/10 14:21:34;;;;;;;0.17;0.17;;;;;;;;;;5077976;28;20236;-61
2023/03/10 14:24:07;;;;;;;0.30;0.30;;;;;;;;;;5070949;28;20198;-61
2023/03/10 14:26:34;;;;;;;0.00;0.00;;;;;;;;;;5066401;28;20203;-61
2023/03/10 14:29:02;;;;;;;0.20;0.20;;;;;;;;;;5068296;28;20230;-60
2023/03/10 14:31:29;;;;;;;0.10;0.10;;;;;;;;;;5065108;28;20253;-60
2023/03/10 14:33:56;;;;;;;0.10;0.10;;;;;;;;;;5064952;28;20219;-60
2023/03/10 14:36:24;;;;;;;0.10;0.10;;;;;;;;;;5065800;28;20224;-58
2023/03/10 14:38:51;;;;;;;5.00;0.23;;;;;;;;;;5081261;28;20276;-61
2023/03/10 14:41:21;;;;;;;0.37;0.37;;;;;;;;;;5068177;28;20237;-60
2023/03/10 14:43:48;;;;;;;0.40;0.40;;;;;;;;;;5073199;28;20252;-60
2023/03/10 14:46:15;;;;;;;0.50;0.50;;;;;;;;;;5072023;28;20203;-59
2023/03/10 14:48:42;;;;;;;0.20;0.20;;;;;;;;;;5070010;28;20222;-59
2023/03/10 14:51:13;;;;;;;0.20;0.20;;;;;;;;;;5066264;28;20259;-59